This is the latest recevied weather packets stored in our database for station/object SQ5OUZ-8. If no packets are shown the sender has not sent any weather packets the latest 10 day(s).
| Time | Temp. | Humidity | Pressure | Rain* | Wind** | Luminosity | Snow |
|---|---|---|---|---|---|---|---|
| 1777565229 | 13.89° C | 19% | 1028 hPa | - | - | - | - |
| 1777564075 | 15.56° C | 17% | 1028 hPa | - | - | - | - |
| 1777562934 | 18.33° C | 14% | 1028 hPa | - | - | - | - |
| 1777561738 | 17.78° C | 15% | 1028 hPa | - | - | - | - |
| 1777560626 | 16.11° C | 16% | 1028 hPa | - | - | - | - |
| 1777559513 | 18.33° C | 15% | 1028 hPa | - | - | - | - |
| 1777558502 | 18.89° C | 14% | 1028 hPa | - | - | - | - |
| 1777557451 | 21.11° C | 13% | 1028 hPa | - | - | - | - |
| 1777556257 | 20.56° C | 13% | 1028 hPa | - | - | - | - |
| 1777555135 | 19.44° C | 14% | 1029 hPa | - | - | - | - |
| 1777553957 | 17.78° C | 16% | 1029 hPa | - | - | - | - |
| 1777552967 | 18.33° C | 16% | 1029 hPa | - | - | - | - |
| 1777551863 | 19.44° C | 15% | 1029 hPa | - | - | - | - |
| 1777549858 | 17.78° C | 16% | 1030 hPa | - | - | - | - |
| 1777548869 | 17.78° C | 17% | 1030 hPa | - | - | - | - |
| 1777547843 | 16.67° C | 18% | 1030 hPa | - | - | - | - |
| 1777546747 | 18.33° C | 17% | 1030 hPa | - | - | - | - |
| 1777545549 | 17.78° C | 17% | 1030 hPa | - | - | - | - |
| 1777544456 | 17.78° C | 16% | 1030 hPa | - | - | - | - |
| 1777543486 | 17.78° C | 16% | 1030 hPa | - | - | - | - |
| 1777542509 | 15.56° C | 19% | 1031 hPa | - | - | - | - |
| 1777541308 | 16.11° C | 17% | 1031 hPa | - | - | - | - |
| 1777540291 | 15.56° C | 18% | 1031 hPa | - | - | - | - |
| 1777539286 | 15° C | 21% | 1031 hPa | - | - | - | - |
| 1777538134 | 15° C | 19% | 1031 hPa | - | - | - | - |
* Rain since midnight (hover to see other rain measurements)
** Current wind speed in m/s (hover to see current wind gust speed)